Time;durP1;ratioP1;P1;durP2;ratioP2;P2;SDS_P1;SDS_P2;PMS_P1;PMS_P2;Temp;Humidity;BMP_temperature;BMP_pressure;BME280_temperature;BME280_humidity;BME280_pressure;Samples;Min_cycle;Max_cycle;Signal;HPM_P1;HPM_P2
2022/07/15 00:00:11;;;;;;;1.98;0.73;;;13.90;99.90;;;;;;5090394;28;20036;-43
2022/07/15 00:02:37;;;;;;;;;;;13.90;99.90;;;;;;5090781;28;20062;-45
2022/07/15 00:05:05;;;;;;;3.17;0.90;;;13.90;99.90;;;;;;5076277;28;19967;-43
2022/07/15 00:07:31;;;;;;;5.53;1.10;;;13.80;99.90;;;;;;5070146;28;20037;-46
2022/07/15 00:12:52;;;;;;;6.50;1.10;;;13.80;99.90;;;;;;5069790;27;20432;-46
2022/07/15 00:15:20;;;;;;;2.33;0.93;;;13.70;99.90;;;;;;5062480;28;20068;-45
2022/07/15 00:17:46;;;;;;;6.30;1.25;;;13.70;99.90;;;;;;5048108;28;20376;-46
2022/07/15 00:20:13;;;;;;;6.40;1.33;;;13.70;99.90;;;;;;5048411;28;20120;-46
2022/07/15 00:22:39;;;;;;;7.15;1.35;;;13.60;99.90;;;;;;5057838;28;20151;-45
2022/07/15 00:25:05;;;;;;;8.25;1.35;;;13.60;99.90;;;;;;5044559;28;20103;-50
2022/07/15 00:27:31;;;;;;;3.92;1.20;;;13.50;99.90;;;;;;5046204;28;20040;-45
2022/07/15 00:29:56;;;;;;;6.97;1.20;;;13.50;99.90;;;;;;5046893;28;20041;-44
2022/07/15 00:32:22;;;;;;;2.50;0.95;;;13.50;99.90;;;;;;5046944;28;20418;-44
2022/07/15 00:34:47;;;;;;;2.75;1.10;;;13.40;99.90;;;;;;5048244;28;20441;-44
2022/07/15 00:37:13;;;;;;;3.58;0.90;;;13.40;99.90;;;;;;5066461;28;20086;-45
2022/07/15 00:39:39;;;;;;;4.55;1.45;;;13.40;99.90;;;;;;5065179;28;20526;-45
2022/07/15 00:42:05;;;;;;;8.15;1.17;;;13.40;99.90;;;;;;5066251;28;20047;-46
2022/07/15 00:44:30;;;;;;;8.52;1.27;;;13.40;99.90;;;;;;5065553;28;20106;-43
2022/07/15 00:46:56;;;;;;;3.47;1.13;;;13.40;99.90;;;;;;5064518;28;20467;-43
2022/07/15 00:49:22;;;;;;;1.55;0.80;;;13.40;99.90;;;;;;5066482;28;20043;-46
2022/07/15 00:51:51;;;;;;;3.30;1.13;;;13.30;99.90;;;;;;5064181;28;20665;-45
2022/07/15 00:54:26;;;;;;;7.72;1.70;;;13.30;99.90;;;;;;5052486;28;20432;-43
2022/07/15 00:56:56;;;;;;;8.63;1.60;;;13.30;99.90;;;;;;5063837;28;20032;-45
2022/07/15 00:59:25;;;;;;;3.47;1.58;;;13.30;99.90;;;;;;5049980;28;20484;-46
2022/07/15 01:01:52;;;;;;;5.25;1.67;;;13.30;99.90;;;;;;5047598;28;20064;-46
2022/07/15 01:04:20;;;;;;;3.45;1.75;;;13.30;99.90;;;;;;5045530;28;20437;-44
2022/07/15 01:06:45;;;;;;;5.60;1.05;;;13.20;99.90;;;;;;5055143;28;20041;-45
2022/07/15 01:09:11;;;;;;;6.85;1.65;;;13.20;99.90;;;;;;5046074;28;20052;-44
2022/07/15 01:11:37;;;;;;;6.85;2.08;;;13.10;99.90;;;;;;5051258;28;20044;-44
2022/07/15 01:14:03;;;;;;;6.78;2.17;;;13.10;99.90;;;;;;5052948;28;20482;-46
2022/07/15 01:16:29;;;;;;;5.97;1.80;;;13.10;99.90;;;;;;5057878;28;20033;-45
2022/07/15 01:18:55;;;;;;;6.47;1.70;;;13.10;99.90;;;;;;5065728;28;20047;-44
2022/07/15 01:21:21;;;;;;;4.35;1.48;;;13.10;99.90;;;;;;5059130;28;20151;-48
2022/07/15 01:23:47;;;;;;;9.60;1.70;;;13.10;99.90;;;;;;5034544;28;20132;-44
2022/07/15 01:26:13;;;;;;;3.05;1.63;;;13.10;99.90;;;;;;5034328;28;20047;-45
2022/07/15 01:28:40;;;;;;;7.03;2.00;;;13.10;99.90;;;;;;5042366;28;20038;-45
2022/07/15 01:31:06;;;;;;;5.55;1.63;;;13.20;99.90;;;;;;5032486;28;20045;-45
2022/07/15 01:33:33;;;;;;;5.72;1.85;;;13.10;99.90;;;;;;5050054;28;20033;-45
2022/07/15 01:35:59;;;;;;;4.22;1.48;;;13.10;99.90;;;;;;5050032;28;20032;-45
2022/07/15 01:38:26;;;;;;;6.38;1.42;;;13.20;99.90;;;;;;5033393;28;20044;-45
2022/07/15 01:40:51;;;;;;;4.55;1.60;;;13.10;99.90;;;;;;5032767;28;20041;-46
2022/07/15 01:43:17;;;;;;;7.18;2.20;;;13.20;99.90;;;;;;5047779;28;20039;-43
2022/07/15 01:45:44;;;;;;;5.13;2.13;;;13.20;99.90;;;;;;5051730;28;20041;-45
2022/07/15 01:49:21;;;;;;;6.85;1.67;;;13.20;99.90;;;;;;5035344;28;20292;-44
2022/07/15 01:50:58;;;;;;;9.90;2.13;;;13.20;99.90;;;;;;5040705;28;20049;-46
2022/07/15 01:53:24;;;;;;;4.18;1.27;;;13.20;99.90;;;;;;5034299;28;20494;-43
2022/07/15 01:55:50;;;;;;;4.53;1.27;;;13.30;99.90;;;;;;5047165;28;20509;-46
2022/07/15 01:58:16;;;;;;;7.10;1.77;;;13.30;99.90;;;;;;5036033;28;20064;-45
2022/07/15 02:00:41;;;;;;;7.40;2.28;;;13.30;99.90;;;;;;5038675;28;20094;-45
2022/07/15 02:03:07;;;;;;;5.22;1.67;;;13.30;99.90;;;;;;5037861;28;20041;-45
2022/07/15 02:05:34;;;;;;;2.08;1.40;;;13.30;99.90;;;;;;5048771;28;20041;-44
2022/07/15 02:07:59;;;;;;;;;;;13.30;99.90;;;;;;5050454;28;20106;-45
2022/07/15 02:10:25;;;;;;;3.92;1.20;;;13.30;99.90;;;;;;5051702;28;19924;-45
2022/07/15 02:12:50;;;;;;;3.93;1.37;;;13.30;99.90;;;;;;5046377;28;20036;-45
2022/07/15 02:15:16;;;;;;;4.37;0.93;;;13.30;99.90;;;;;;5049683;28;20742;-45
2022/07/15 02:17:42;;;;;;;7.75;1.40;;;13.40;99.90;;;;;;5048155;28;20283;-45
2022/07/15 02:20:08;;;;;;;3.90;1.30;;;13.40;99.90;;;;;;5050859;28;20033;-44
2022/07/15 02:22:33;;;;;;;7.57;1.52;;;13.40;99.90;;;;;;5044587;28;20073;-44
2022/07/15 02:24:59;;;;;;;4.88;1.48;;;13.40;99.90;;;;;;5030778;28;20474;-46
2022/07/15 02:27:24;;;;;;;7.60;1.30;;;13.50;99.90;;;;;;5037239;28;20514;-45
2022/07/15 02:29:50;;;;;;;8.97;2.30;;;13.50;99.90;;;;;;5051751;28;20610;-44
2022/07/15 02:32:16;;;;;;;5.87;1.47;;;13.50;99.90;;;;;;5051120;28;20299;-45
2022/07/15 02:34:41;;;;;;;9.32;0.95;;;13.50;99.90;;;;;;5048685;28;20326;-45
2022/07/15 02:37:07;;;;;;;5.95;1.45;;;13.50;99.90;;;;;;5050338;28;20459;-43
2022/07/15 02:39:32;;;;;;;6.88;1.25;;;13.50;99.90;;;;;;5031104;28;20041;-44
2022/07/15 02:41:58;;;;;;;4.60;1.02;;;13.60;99.90;;;;;;5031175;28;20045;-45
2022/07/15 02:44:24;;;;;;;8.25;1.25;;;13.60;99.90;;;;;;5030188;28;20049;-44
2022/07/15 02:46:49;;;;;;;6.07;1.27;;;13.60;99.90;;;;;;5031583;28;20396;-45
2022/07/15 02:49:15;;;;;;;5.63;2.17;;;13.60;99.90;;;;;;5039998;28;20044;-44
2022/07/15 02:51:40;;;;;;;7.80;1.87;;;13.60;99.90;;;;;;5036176;28;20299;-43
2022/07/15 02:54:06;;;;;;;4.32;1.08;;;13.70;99.90;;;;;;5045047;28;20295;-48
2022/07/15 02:56:32;;;;;;;9.90;1.92;;;13.70;99.90;;;;;;5045749;28;20425;-46
2022/07/15 02:58:57;;;;;;;11.52;1.40;;;13.70;99.90;;;;;;5032203;28;20045;-44
2022/07/15 03:01:23;;;;;;;5.18;1.00;;;13.60;99.90;;;;;;5030661;28;20037;-45
2022/07/15 03:03:48;;;;;;;4.43;1.37;;;13.60;99.90;;;;;;5038818;28;20573;-44
2022/07/15 03:06:14;;;;;;;4.25;1.08;;;13.60;99.90;;;;;;5037897;28;20379;-43
2022/07/15 03:08:39;;;;;;;7.40;1.27;;;13.60;99.90;;;;;;5049099;28;20036;-47
2022/07/15 03:11:05;;;;;;;4.78;1.00;;;13.60;99.90;;;;;;5047457;28;20041;-43
2022/07/15 03:13:31;;;;;;;7.35;1.15;;;13.60;99.90;;;;;;5047521;28;20116;-45
2022/07/15 03:15:56;;;;;;;3.35;0.93;;;13.50;99.90;;;;;;5029800;28;20267;-45
2022/07/15 03:18:22;;;;;;;2.97;1.10;;;13.60;99.90;;;;;;5045225;28;20034;-44
2022/07/15 03:20:48;;;;;;;9.73;1.75;;;13.50;99.90;;;;;;5048007;28;20037;-46
2022/07/15 03:23:14;;;;;;;5.15;1.17;;;13.50;99.90;;;;;;5045189;28;21372;-44
2022/07/15 03:25:40;;;;;;;6.25;1.02;;;13.50;99.90;;;;;;5030705;28;20045;-44
2022/07/15 03:28:05;;;;;;;6.28;1.13;;;13.50;99.90;;;;;;5030467;28;20037;-45
2022/07/15 03:30:31;;;;;;;4.97;1.27;;;13.50;99.90;;;;;;5043707;28;20049;-45
2022/07/15 03:32:56;;;;;;;5.53;1.30;;;13.40;99.90;;;;;;5028826;28;20295;-43
2022/07/15 03:35:23;;;;;;;8.25;0.98;;;13.50;99.90;;;;;;5036561;28;20324;-46
2022/07/15 03:37:48;;;;;;;12.75;2.05;;;13.40;99.90;;;;;;5036776;28;20048;-43
2022/07/15 03:40:14;;;;;;;6.88;1.02;;;13.40;99.90;;;;;;5048489;28;20028;-45
2022/07/15 03:42:39;;;;;;;6.72;1.38;;;13.30;99.90;;;;;;5041471;28;20057;-44
2022/07/15 03:45:06;;;;;;;5.85;1.30;;;13.30;99.90;;;;;;5035140;28;20120;-45
2022/07/15 03:47:31;;;;;;;5.57;1.30;;;13.30;99.90;;;;;;5042098;28;20037;-44
2022/07/15 03:49:57;;;;;;;6.13;1.30;;;13.20;99.90;;;;;;5030076;28;20459;-45
2022/07/15 03:52:22;;;;;;;7.60;0.80;;;13.20;99.90;;;;;;5035729;28;20041;-45
2022/07/15 03:54:48;;;;;;;7.87;1.67;;;13.20;99.90;;;;;;5048716;28;20099;-43
2022/07/15 03:57:13;;;;;;;8.57;1.73;;;13.20;99.90;;;;;;5040514;28;20295;-44
2022/07/15 03:59:39;;;;;;;9.27;1.83;;;13.20;99.90;;;;;;5049634;28;20560;-43
2022/07/15 04:02:05;;;;;;;14.27;1.17;;;13.20;99.90;;;;;;5040670;28;20046;-45
2022/07/15 04:04:30;;;;;;;4.88;1.30;;;13.10;99.90;;;;;;5049738;28;20045;-43
2022/07/15 04:06:56;;;;;;;6.47;1.88;;;13.10;99.90;;;;;;5048386;28;20044;-44
2022/07/15 04:09:21;;;;;;;5.60;1.55;;;13.10;99.90;;;;;;5033491;28;20037;-45
2022/07/15 04:11:47;;;;;;;5.72;0.88;;;13.10;99.90;;;;;;5048323;28;20094;-44
2022/07/15 04:14:13;;;;;;;4.95;1.20;;;13.10;99.90;;;;;;5032466;28;20068;-44
2022/07/15 04:16:40;;;;;;;4.03;0.80;;;13.00;99.90;;;;;;5031780;28;20560;-46
2022/07/15 04:19:06;;;;;;;7.90;1.48;;;13.00;99.90;;;;;;5049084;28;20426;-43
2022/07/15 04:21:31;;;;;;;8.90;1.50;;;13.00;99.90;;;;;;5048308;28;20037;-44
2022/07/15 04:23:57;;;;;;;6.50;1.48;;;13.00;99.90;;;;;;5040417;28;20696;-43
2022/07/15 04:26:23;;;;;;;5.53;1.60;;;13.00;99.90;;;;;;5049028;28;20045;-46
2022/07/15 04:28:48;;;;;;;6.50;1.20;;;13.00;99.90;;;;;;5049848;28;20112;-45
2022/07/15 04:31:14;;;;;;;5.33;1.53;;;13.00;99.90;;;;;;5049122;28;20044;-45
2022/07/15 04:33:39;;;;;;;12.40;2.07;;;13.00;99.90;;;;;;5045839;28;20290;-46
2022/07/15 04:36:05;;;;;;;6.10;1.53;;;13.00;99.90;;;;;;5049008;28;20279;-44
2022/07/15 04:38:31;;;;;;;6.13;1.88;;;13.00;99.90;;;;;;5033901;28;20097;-49
2022/07/15 04:40:56;;;;;;;6.37;1.67;;;13.00;99.90;;;;;;5029732;28;20490;-44
2022/07/15 04:43:22;;;;;;;5.77;1.23;;;13.00;99.90;;;;;;5028600;28;20048;-46
2022/07/15 04:45:47;;;;;;;8.27;1.87;;;13.10;99.90;;;;;;5029212;28;20512;-45
2022/07/15 04:50:57;;;;;;;6.68;2.15;;;13.10;99.90;;;;;;5029493;28;20785;-45
2022/07/15 04:53:23;;;;;;;5.05;1.65;;;13.10;99.90;;;;;;5029169;28;20034;-46
2022/07/15 04:55:49;;;;;;;4.47;1.27;;;13.10;99.90;;;;;;5043908;28;20594;-44
2022/07/15 04:58:15;;;;;;;5.47;1.50;;;13.20;99.90;;;;;;5031435;28;20037;-44
2022/07/15 05:00:42;;;;;;;11.43;2.55;;;13.20;99.90;;;;;;5046243;28;20494;-43
2022/07/15 05:03:08;;;;;;;7.50;1.95;;;13.20;99.90;;;;;;5046019;28;20036;-45
2022/07/15 05:05:33;;;;;;;11.50;1.63;;;13.20;99.90;;;;;;5044556;28;20037;-44
2022/07/15 05:07:59;;;;;;;7.72;2.00;;;13.30;99.90;;;;;;5050892;28;20079;-43
2022/07/15 05:10:25;;;;;;;8.97;1.10;;;13.30;99.90;;;;;;5045408;28;20099;-46
2022/07/15 05:12:50;;;;;;;6.63;1.85;;;13.30;99.90;;;;;;5045809;28;20402;-45
2022/07/15 05:15:16;;;;;;;5.95;1.40;;;13.40;99.90;;;;;;5042782;28;20099;-44
2022/07/15 05:17:41;;;;;;;6.97;1.17;;;13.40;99.90;;;;;;5033695;28;20041;-44
2022/07/15 05:20:07;;;;;;;4.18;1.30;;;13.50;99.90;;;;;;5040170;28;20086;-43
2022/07/15 05:22:33;;;;;;;3.85;1.27;;;13.50;99.90;;;;;;5040757;28;20048;-44
2022/07/15 05:24:59;;;;;;;6.13;1.58;;;13.60;99.90;;;;;;5036109;28;20037;-45
2022/07/15 05:27:24;;;;;;;6.87;1.87;;;13.60;99.90;;;;;;5051677;28;20037;-44
2022/07/15 05:29:50;;;;;;;5.60;1.52;;;13.70;99.90;;;;;;5049026;28;20132;-46
2022/07/15 05:32:15;;;;;;;9.27;1.77;;;13.80;99.90;;;;;;5051890;28;20123;-44
2022/07/15 05:34:41;;;;;;;4.40;0.95;;;13.80;99.90;;;;;;5032070;28;20060;-45
2022/07/15 05:37:07;;;;;;;13.35;2.10;;;13.90;99.90;;;;;;5032391;28;20037;-43
2022/07/15 05:39:32;;;;;;;5.20;1.40;;;13.90;99.90;;;;;;5032239;28;20407;-45
2022/07/15 05:41:58;;;;;;;8.60;2.05;;;14.00;99.90;;;;;;5037210;28;20037;-45
2022/07/15 05:44:24;;;;;;;7.68;1.60;;;14.10;99.90;;;;;;5048697;28;20037;-45
2022/07/15 05:46:50;;;;;;;6.65;1.70;;;14.10;99.90;;;;;;5047320;28;20329;-45
2022/07/15 05:49:16;;;;;;;7.93;1.67;;;14.20;99.90;;;;;;5051695;28;20560;-44
2022/07/15 05:51:42;;;;;;;7.72;1.63;;;14.20;99.90;;;;;;5036095;28;20052;-47
2022/07/15 05:54:07;;;;;;;7.68;1.35;;;14.30;99.90;;;;;;5031507;28;20121;-45
2022/07/15 05:56:33;;;;;;;4.88;1.60;;;14.40;99.90;;;;;;5043695;28;20538;-44
2022/07/15 05:58:59;;;;;;;4.18;1.10;;;14.40;99.90;;;;;;5050740;28;20056;-44
2022/07/15 06:01:24;;;;;;;7.45;1.65;;;14.50;99.90;;;;;;5037622;28;20132;-45
2022/07/15 06:03:51;;;;;;;4.40;1.20;;;14.50;99.90;;;;;;5031466;28;20076;-47
2022/07/15 06:06:16;;;;;;;4.53;1.00;;;14.60;99.90;;;;;;5042023;28;20688;-45
2022/07/15 06:08:42;;;;;;;7.88;1.85;;;14.60;99.90;;;;;;5050324;28;20049;-44
2022/07/15 06:11:08;;;;;;;;;;;14.60;99.90;;;;;;5043804;28;20037;-49
2022/07/15 06:13:34;;;;;;;4.53;0.65;;;14.70;99.90;;;;;;5041221;28;19939;-44
2022/07/15 06:15:59;;;;;;;4.65;1.08;;;14.70;99.90;;;;;;5031303;28;20144;-45
2022/07/15 06:18:25;;;;;;;4.97;1.10;;;14.70;99.90;;;;;;5041274;28;20566;-43
2022/07/15 06:20:51;;;;;;;3.75;0.82;;;14.80;99.90;;;;;;5031740;28;20043;-43
2022/07/15 06:23:17;;;;;;;4.97;0.95;;;14.80;99.90;;;;;;5030276;28;20045;-46
2022/07/15 06:25:42;;;;;;;3.88;0.60;;;14.80;99.90;;;;;;5040737;28;20045;-45
2022/07/15 06:28:08;;;;;;;7.65;0.75;;;14.80;99.90;;;;;;5050779;28;20508;-45
2022/07/15 06:30:34;;;;;;;3.08;0.43;;;14.90;99.90;;;;;;5052868;28;20037;-44
2022/07/15 06:32:59;;;;;;;8.52;0.40;;;14.90;99.90;;;;;;5040984;28;20064;-44
2022/07/15 06:35:25;;;;;;;3.55;0.60;;;14.90;99.90;;;;;;5030616;28;20076;-48
2022/07/15 06:37:51;;;;;;;4.35;0.50;;;15.00;99.90;;;;;;5031281;28;20049;-50
2022/07/15 06:40:17;;;;;;;;;;;15.00;99.90;;;;;;5051360;28;20047;-52
2022/07/15 06:42:42;;;;;;;5.05;0.20;;;15.00;99.90;;;;;;5031073;28;19947;-47
2022/07/15 06:45:10;;;;;;;3.63;0.20;;;15.00;99.90;;;;;;5048401;28;20098;-51
2022/07/15 06:47:36;;;;;;;3.75;0.10;;;15.00;99.90;;;;;;5041590;28;20696;-51
2022/07/15 06:50:04;;;;;;;1.88;0.13;;;15.10;99.90;;;;;;5038125;28;20373;-47
2022/07/15 06:52:29;;;;;;;2.83;0.25;;;15.10;99.90;;;;;;5039434;28;20041;-52
2022/07/15 06:54:55;;;;;;;4.43;0.20;;;15.20;99.90;;;;;;5044267;28;20033;-49
2022/07/15 06:57:20;;;;;;;4.25;0.20;;;15.20;99.90;;;;;;5049891;28;20044;-50
2022/07/15 06:59:46;;;;;;;1.30;0.22;;;15.20;99.90;;;;;;5051006;28;20063;-50
2022/07/15 07:02:12;;;;;;;5.45;0.35;;;15.30;99.90;;;;;;5049953;28;20182;-49
2022/07/15 07:04:37;;;;;;;4.30;0.52;;;15.30;99.90;;;;;;5049941;28;20037;-49
2022/07/15 07:07:03;;;;;;;2.45;0.30;;;15.40;99.90;;;;;;5044151;28;20049;-48
2022/07/15 07:09:28;;;;;;;3.90;0.45;;;15.50;99.90;;;;;;5039905;28;20037;-46
2022/07/15 07:11:54;;;;;;;3.97;0.20;;;15.60;99.90;;;;;;5040249;28;20036;-46
2022/07/15 07:14:19;;;;;;;3.45;0.20;;;15.60;99.90;;;;;;5034014;28;20041;-47
2022/07/15 07:16:46;;;;;;;2.15;0.20;;;15.70;99.90;;;;;;5039377;28;20033;-51
2022/07/15 07:19:13;;;;;;;2.03;0.20;;;15.80;99.90;;;;;;5033605;28;20049;-48
2022/07/15 07:21:39;;;;;;;1.67;0.20;;;15.90;99.90;;;;;;5037791;28;20440;-51
2022/07/15 07:24:05;;;;;;;;;;;16.00;99.90;;;;;;5039151;28;20113;-50
2022/07/15 07:26:30;;;;;;;2.92;0.20;;;16.10;99.90;;;;;;5037852;28;20230;-46
2022/07/15 07:28:56;;;;;;;1.02;0.22;;;16.10;99.90;;;;;;5037325;28;20494;-50
2022/07/15 07:31:25;;;;;;;3.92;0.30;;;16.30;99.90;;;;;;5040367;28;20072;-49
2022/07/15 07:33:52;;;;;;;3.63;0.10;;;16.30;99.90;;;;;;5037387;28;20045;-49
2022/07/15 07:36:18;;;;;;;1.80;0.20;;;16.50;99.90;;;;;;5037393;28;20099;-50
2022/07/15 07:38:43;;;;;;;6.57;0.47;;;16.50;99.90;;;;;;5039135;28;20045;-47
2022/07/15 07:41:09;;;;;;;2.53;0.40;;;16.70;99.90;;;;;;5037113;28;20127;-51
2022/07/15 07:43:35;;;;;;;2.88;0.30;;;16.80;99.90;;;;;;5040297;28;20474;-47
2022/07/15 07:46:01;;;;;;;2.30;0.13;;;16.80;99.90;;;;;;5036307;28;20038;-51
2022/07/15 07:48:27;;;;;;;4.80;0.20;;;16.90;99.90;;;;;;5044667;28;20107;-50
2022/07/15 07:50:53;;;;;;;4.60;0.30;;;16.90;99.90;;;;;;5044120;28;20029;-44
2022/07/15 07:53:18;;;;;;;2.88;0.43;;;17.00;99.90;;;;;;5048857;28;20040;-49
2022/07/15 07:55:44;;;;;;;0.50;0.10;;;17.10;99.90;;;;;;5043321;28;20060;-48
2022/07/15 07:58:11;;;;;;;3.22;0.20;;;17.20;99.90;;;;;;5049776;28;20432;-46
2022/07/15 08:00:37;;;;;;;2.38;0.40;;;17.30;99.90;;;;;;5042620;28;20103;-47
2022/07/15 08:03:03;;;;;;;2.65;0.20;;;17.40;99.90;;;;;;5029860;28;20045;-48
2022/07/15 08:05:28;;;;;;;3.22;0.15;;;17.40;99.90;;;;;;5040240;28;20060;-48
2022/07/15 08:08:12;;;;;;;4.90;0.95;;;17.50;99.90;;;;;;5042432;28;20124;-46
2022/07/15 08:10:43;;;;;;;3.22;0.15;;;17.60;99.90;;;;;;5029443;28;20541;-49
2022/07/15 08:13:09;;;;;;;2.60;0.28;;;17.70;99.90;;;;;;5029957;28;20033;-47
2022/07/15 08:15:34;;;;;;;1.95;0.10;;;17.70;99.90;;;;;;5041197;28;20478;-46
2022/07/15 08:18:01;;;;;;;0.30;0.00;;;17.70;99.90;;;;;;5040150;28;20116;-49
2022/07/15 08:20:29;;;;;;;2.53;0.10;;;17.60;99.90;;;;;;5038359;28;20144;-48
2022/07/15 08:22:58;;;;;;;2.60;0.10;;;17.50;99.90;;;;;;5034870;28;20037;-49
2022/07/15 08:25:28;;;;;;;2.45;0.20;;;17.50;99.90;;;;;;5033598;28;20044;-49
2022/07/15 08:27:54;;;;;;;3.08;0.30;;;17.50;99.90;;;;;;5048365;28;20502;-50
2022/07/15 08:30:19;;;;;;;2.67;0.13;;;17.50;99.80;;;;;;5039493;28;20102;-46
2022/07/15 08:32:45;;;;;;;3.08;0.10;;;17.60;99.90;;;;;;5029648;28;20041;-46
2022/07/15 08:35:11;;;;;;;4.22;0.52;;;17.70;99.90;;;;;;5044166;28;20037;-51
2022/07/15 08:37:37;;;;;;;1.27;0.10;;;17.70;99.90;;;;;;5035795;28;20612;-48
2022/07/15 08:40:04;;;;;;;0.85;0.10;;;17.80;99.80;;;;;;5046601;28;20120;-50
2022/07/15 08:42:29;;;;;;;1.05;0.20;;;17.80;99.80;;;;;;5033198;28;20128;-51
2022/07/15 08:44:55;;;;;;;1.65;0.10;;;17.80;99.80;;;;;;5032444;28;20141;-48
2022/07/15 08:47:23;;;;;;;2.08;0.10;;;17.90;99.80;;;;;;5034056;28;20065;-48
2022/07/15 08:49:55;;;;;;;2.92;0.10;;;17.90;99.90;;;;;;5039205;28;20079;-48
2022/07/15 08:52:23;;;;;;;3.20;0.17;;;18.00;99.90;;;;;;5050135;28;20041;-53
2022/07/15 08:54:49;;;;;;;0.70;0.10;;;18.10;99.80;;;;;;5038062;28;20041;-50
2022/07/15 08:57:15;;;;;;;2.30;0.03;;;18.20;99.90;;;;;;5052510;28;20066;-50
2022/07/15 08:59:42;;;;;;;0.28;0.00;;;18.30;99.90;;;;;;5051291;28;20072;-49
2022/07/15 09:02:10;;;;;;;2.40;0.05;;;18.40;99.00;;;;;;5032741;28;20045;-49
2022/07/15 09:05:15;;;;;;;0.38;0.15;;;18.50;98.70;;;;;;5051458;28;20053;-49
2022/07/15 09:07:54;;;;;;;2.50;0.10;;;18.40;98.40;;;;;;5032776;28;20053;-48
2022/07/15 09:10:21;;;;;;;1.10;0.00;;;18.40;98.30;;;;;;5034530;28;20068;-48
2022/07/15 09:12:52;;;;;;;1.92;0.20;;;18.40;98.40;;;;;;5043262;28;20119;-49
2022/07/15 09:15:39;;;;;;;1.55;0.00;;;18.30;98.20;;;;;;5047649;28;20090;-49
2022/07/15 09:18:16;;;;;;;1.70;0.00;;;18.30;98.10;;;;;;5037194;28;20125;-46
2022/07/15 09:20:44;;;;;;;7.63;0.45;;;18.30;98.00;;;;;;5049132;28;20041;-50
2022/07/15 09:23:12;;;;;;;5.95;0.10;;;18.30;97.90;;;;;;5050105;28;20060;-51
2022/07/15 09:25:39;;;;;;;2.92;0.10;;;18.40;98.10;;;;;;5047870;28;20137;-53
2022/07/15 09:28:06;;;;;;;1.50;0.03;;;18.60;98.90;;;;;;5040172;28;20403;-52
2022/07/15 09:33:34;;;;;;;0.60;0.00;;;18.80;97.60;;;;;;5041982;28;20045;-52
2022/07/15 09:36:06;;;;;;;2.33;0.10;;;18.80;97.20;;;;;;5049663;28;20091;-52
2022/07/15 09:38:46;;;;;;;3.30;0.10;;;18.90;97.70;;;;;;5052504;28;20384;-52
2022/07/15 09:41:12;;;;;;;2.50;0.10;;;18.90;97.80;;;;;;5048468;28;20044;-52
2022/07/15 09:43:56;;;;;;;0.98;0.10;;;18.80;96.90;;;;;;5051087;28;20044;-49
2022/07/15 09:46:24;;;;;;;0.30;0.20;;;18.80;96.80;;;;;;5034888;28;20037;-53
2022/07/15 09:48:52;;;;;;;3.25;0.10;;;18.70;97.70;;;;;;5051474;28;20086;-53
2022/07/15 09:51:18;;;;;;;2.55;0.10;;;18.60;97.90;;;;;;5037923;28;20041;-53
2022/07/15 09:53:45;;;;;;;0.45;0.10;;;18.50;97.60;;;;;;5032542;28;20060;-51
2022/07/15 09:56:15;;;;;;;0.47;0.10;;;18.40;97.80;;;;;;5033370;28;20036;-53
2022/07/15 09:58:43;;;;;;;0.82;0.00;;;18.40;98.00;;;;;;5031919;28;20041;-52
2022/07/15 10:01:10;;;;;;;1.05;0.20;;;18.30;97.60;;;;;;5037156;28;20526;-52
2022/07/15 10:03:37;;;;;;;1.15;0.03;;;18.40;97.60;;;;;;5038092;28;20418;-47
2022/07/15 10:06:04;;;;;;;0.82;0.20;;;18.50;98.00;;;;;;5046636;28;20087;-48
2022/07/15 10:08:31;;;;;;;5.38;2.22;;;18.60;97.70;;;;;;5039710;28;20128;-51
2022/07/15 10:10:57;;;;;;;5.38;0.20;;;18.80;97.70;;;;;;5035426;28;20033;-50
2022/07/15 10:13:49;;;;;;;3.35;0.30;;;18.90;97.60;;;;;;5046496;28;20108;-49
2022/07/15 10:16:38;;;;;;;0.60;0.00;;;19.10;97.00;;;;;;5037568;28;20044;-51
2022/07/15 10:19:17;;;;;;;1.52;0.20;;;19.20;96.30;;;;;;5039475;28;20045;-53
2022/07/15 10:22:14;;;;;;;1.33;0.47;;;19.20;96.20;;;;;;5045711;28;20131;-49
2022/07/15 10:24:46;;;;;;;1.27;0.10;;;19.20;96.60;;;;;;5045305;28;20045;-53
2022/07/15 10:27:38;;;;;;;0.68;0.13;;;19.10;96.80;;;;;;5051386;28;20052;-51
2022/07/15 10:30:06;;;;;;;0.10;0.00;;;19.10;96.40;;;;;;5031897;28;20045;-51
2022/07/15 10:33:03;;;;;;;0.35;0.03;;;19.00;96.50;;;;;;5050326;28;20237;-52
2022/07/15 10:35:39;;;;;;;0.50;0.00;;;19.00;96.50;;;;;;5050346;28;20044;-53
2022/07/15 10:38:23;;;;;;;0.32;0.00;;;19.10;96.60;;;;;;5046223;28;20117;-53
2022/07/15 10:40:55;;;;;;;1.10;0.10;;;19.20;97.20;;;;;;5031326;28;20045;-50
2022/07/15 10:43:41;;;;;;;0.75;0.10;;;19.30;96.80;;;;;;5031278;28;20068;-52
2022/07/15 10:46:16;;;;;;;0.43;0.00;;;19.50;96.20;;;;;;5049023;28;20065;-51
2022/07/15 10:48:46;;;;;;;0.30;0.05;;;19.60;95.60;;;;;;5046209;28;20422;-53
2022/07/15 10:51:13;;;;;;;0.88;0.10;;;19.70;95.50;;;;;;5040276;28;20068;-52
2022/07/15 10:53:47;;;;;;;0.38;0.10;;;19.70;94.70;;;;;;5039458;28;20116;-53
2022/07/15 10:56:34;;;;;;;4.88;0.10;;;19.70;94.80;;;;;;5031951;28;20037;-51
2022/07/15 10:59:21;;;;;;;3.95;0.10;;;19.70;95.30;;;;;;5035269;28;20414;-50
2022/07/15 11:01:49;;;;;;;0.63;0.10;;;19.60;94.70;;;;;;5030761;28;20037;-51
2022/07/15 11:04:17;;;;;;;2.65;0.10;;;19.70;95.30;;;;;;5036281;28;20044;-52
2022/07/15 11:07:07;;;;;;;3.95;0.10;;;19.60;95.30;;;;;;5036010;28;20033;-51
2022/07/15 11:10:11;;;;;;;0.60;0.10;;;19.60;95.10;;;;;;5029511;28;20057;-48
2022/07/15 11:12:37;;;;;;;1.80;0.10;;;19.50;95.00;;;;;;5049770;28;20173;-50
2022/07/15 11:15:04;;;;;;;1.27;0.10;;;19.50;95.80;;;;;;5041970;28;20041;-49
2022/07/15 11:17:29;;;;;;;1.27;0.20;;;19.40;95.70;;;;;;5046557;28;20041;-52
2022/07/15 11:19:57;;;;;;;0.30;0.10;;;19.30;95.80;;;;;;5039557;28;20110;-50
2022/07/15 11:22:25;;;;;;;1.10;0.10;;;19.20;95.30;;;;;;5032524;28;20098;-50
2022/07/15 11:24:52;;;;;;;0.57;0.10;;;19.10;94.80;;;;;;5033711;28;20040;-53
2022/07/15 11:27:22;;;;;;;1.08;0.13;;;19.00;95.00;;;;;;5048270;28;20129;-48
2022/07/15 11:29:54;;;;;;;0.60;0.25;;;18.90;95.00;;;;;;5032122;28;20445;-52
2022/07/15 11:32:21;;;;;;;0.60;0.10;;;18.90;95.20;;;;;;5029777;28;20113;-48
2022/07/15 11:34:52;;;;;;;0.60;0.00;;;18.90;95.60;;;;;;5036506;28;20030;-49
2022/07/15 11:37:23;;;;;;;0.80;0.10;;;18.90;95.20;;;;;;5044339;28;20072;-51
2022/07/15 11:40:03;;;;;;;3.25;0.10;;;19.00;95.60;;;;;;5044449;28;20479;-54
2022/07/15 11:45:35;;;;;;;0.50;0.17;;;19.10;95.80;;;;;;5049676;28;20506;-50
2022/07/15 11:48:01;;;;;;;0.40;0.10;;;19.20;95.50;;;;;;5046962;28;20374;-52
2022/07/15 11:50:27;;;;;;;0.95;0.10;;;19.20;95.90;;;;;;5030291;28;20113;-50
2022/07/15 11:52:58;;;;;;;5.15;0.30;;;19.20;95.20;;;;;;5035960;28;20118;-47
2022/07/15 11:55:24;;;;;;;2.47;0.10;;;19.30;95.70;;;;;;5033220;28;20570;-49
2022/07/15 11:57:51;;;;;;;0.88;0.10;;;19.40;96.70;;;;;;5029754;28;20121;-52
2022/07/15 12:00:19;;;;;;;0.28;0.10;;;19.50;96.20;;;;;;5030985;28;20057;-53
2022/07/15 12:02:44;;;;;;;0.50;0.08;;;19.60;95.90;;;;;;5033250;28;20037;-50
2022/07/15 12:05:10;;;;;;;1.88;0.10;;;19.60;96.00;;;;;;5046739;28;20044;-51
2022/07/15 12:07:44;;;;;;;3.38;0.32;;;19.60;95.90;;;;;;5047192;28;20049;-52
2022/07/15 12:10:11;;;;;;;1.35;0.20;;;19.60;95.30;;;;;;5046272;28;20524;-48
2022/07/15 12:12:56;;;;;;;1.42;0.30;;;19.60;95.40;;;;;;5047717;28;20521;-48
2022/07/15 12:15:22;;;;;;;3.15;0.20;;;19.60;95.40;;;;;;5038557;28;20033;-48
2022/07/15 12:17:49;;;;;;;2.20;0.20;;;19.60;95.50;;;;;;5038959;28;20090;-48
2022/07/15 12:20:15;;;;;;;4.32;0.17;;;19.60;95.70;;;;;;5042292;28;20040;-51
2022/07/15 12:23:07;;;;;;;3.47;0.15;;;19.70;96.00;;;;;;5049256;28;20047;-47
2022/07/15 12:25:33;;;;;;;2.90;0.20;;;19.80;95.40;;;;;;5048468;28;20490;-49
2022/07/15 12:27:59;;;;;;;2.30;0.57;;;19.80;95.70;;;;;;5043195;28;20040;-48
2022/07/15 12:30:38;;;;;;;0.40;0.10;;;19.90;95.40;;;;;;5041967;28;20091;-51
2022/07/15 12:33:15;;;;;;;0.47;0.10;;;19.90;94.40;;;;;;5028996;28;20049;-49
2022/07/15 12:35:40;;;;;;;4.15;0.30;;;20.00;94.80;;;;;;5040000;28;20116;-51
2022/07/15 12:38:06;;;;;;;3.35;0.22;;;20.00;95.10;;;;;;5045979;28;20785;-50
2022/07/15 12:40:31;;;;;;;;;;;20.00;94.30;;;;;;5046164;28;20402;-50
2022/07/15 12:42:57;;;;;;;1.45;0.30;;;20.00;93.90;;;;;;5028461;28;19948;-48
2022/07/15 12:45:24;;;;;;;;;;;19.90;94.80;;;;;;5047408;28;20465;-52
2022/07/15 12:48:07;;;;;;;0.30;0.20;;;19.90;94.20;;;;;;5048826;28;20015;-49
2022/07/15 12:50:34;;;;;;;3.60;0.40;;;19.90;94.50;;;;;;5032729;28;20045;-48
2022/07/15 12:53:00;;;;;;;3.25;0.10;;;19.80;95.00;;;;;;5046676;28;20119;-53
2022/07/15 12:55:41;;;;;;;1.52;0.20;;;19.80;94.40;;;;;;5031247;28;20117;-48
2022/07/15 12:58:14;;;;;;;2.05;0.20;;;19.80;94.20;;;;;;5029055;28;20038;-52
2022/07/15 13:00:41;;;;;;;1.55;0.10;;;19.80;94.50;;;;;;5029961;28;20041;-52
2022/07/15 13:03:10;;;;;;;0.98;0.10;;;19.80;94.80;;;;;;5035909;28;20041;-50